Meteo Giornale » Osservazioni meteo Russia » Abakan
ore: 23:30 - Osservazioni Meteo Abakan
Lat. 53° 45' N Lon. 91° 24' E Alt. 245 metri s.l.m.
14 °C
Pioggia
Temp. 24 Ore
14 °C
25 °C
Nord/NOvest
25.2 Km/h
Dew point 12 °C
Umidità 87 %
Visibilità 10 Km
Il sole sorge alle ore 06:02
Il sole tramonta alle ore 19:46
| Data e Ora | Cielo e Fenomeni | T °C | DP °C | Um. % | Pres. hPa | Vis. km | Vento km/h | |
|---|---|---|---|---|---|---|---|---|
| Ieri h: 23:30 | Pioggia | 14 | 12 | 87 | 1003 | 10 | N/NO 25.2 | |
| Ieri h: 23:00 | Pioggia | 14 | 12 | 87 | 1003 | 10 | N 18 | |
| Ieri h: 22:30 | Pioggia | 14 | 12 | 87 | 1003 | 10 | N/NO 14.4 | |
| Ieri h: 22:00 | Pioggia | 15 | 13 | 87 | 1004 | 9 | N 14.4 | |
| Ieri h: 21:30 | Pioggia | 16 | 13 | 82 | 1003 | 10 | NO 14.4 | |
| Ieri h: 21:22 | Pioggia | 16 | 13 | 82 | 1003 | 10 | N/NO 21.6 | |
| Ieri h: 21:09 | Temporale | 17 | 12 | 72 | 1003 | 9 | N/NO 18 | |
| Ieri h: 21:00 | Pioggia | 18 | 12 | 67 | 1003 | 10 | N/NO 18 | |
| Ieri h: 20:30 | Sereno | 19 | 13 | 68 | 1002 | 10 | N 14.4 | |
| Ieri h: 20:00 | Sereno | 18 | 12 | 67 | 1003 | 10 | N/NO 14.4 | |
| Ieri h: 19:30 | Sereno | 19 | 12 | 63 | 1003 | 10 | N 7.2 | |
| Ieri h: 19:00 | Sereno | 21 | 11 | 52 | 1004 | 10 | N 7.2 | |
| Ieri h: 18:30 | Sereno | 23 | 9 | 40 | 1005 | 10 | O 10.8 | |
| Ieri h: 18:00 | Sereno | 24 | 8 | 35 | 1005 | 10 | O/NO 10.8 | |
| Ieri h: 17:30 | Sereno | 24 | 8 | 35 | 1006 | 10 | N 7.2 | |
| Ieri h: 17:00 | Sereno | 24 | 9 | 38 | 1006 | 10 | N 7.2 | |
| Ieri h: 16:30 | Sereno | 25 | 10 | 38 | 1007 | 10 | N 3.6 | |
| Ieri h: 16:00 | Sereno | 25 | 10 | 38 | 1007 | 10 | S/SO 10.8 | |
| Ieri h: 15:30 | Sereno | 24 | 10 | 41 | 1007 | 10 | S 14.4 | |
| Ieri h: 15:00 | Sereno | 24 | 10 | 41 | 1008 | 10 | S 10.8 | |
| Ieri h: 14:30 | Sereno | 24 | 12 | 47 | 1008 | 10 | S/SO 14.4 | |
| Ieri h: 14:00 | Sereno | 24 | 9 | 38 | 1008 | 10 | SO 18 | |
| Ieri h: 13:30 | Sereno | 24 | 12 | 47 | 1009 | 10 | SO 18 | |
| Ieri h: 13:00 | Nuvoloso | 24 | 12 | 47 | 1009 | 10 | S/SO 14.4 | |
| Ieri h: 12:30 | Sereno | 23 | 13 | 53 | 1009 | 10 | S/SO 18 | |
| Ieri h: 12:00 | Sereno | 23 | 12 | 49 | 1009 | 10 | S/SO 21.6 | |
| Ieri h: 11:30 | Sereno | 22 | 15 | 64 | 1009 | 10 | S 18 | |
| Ieri h: 11:00 | Poco Nuvoloso | 21 | 14 | 64 | 1010 | 10 | S/SO 14.4 | |
| Ieri h: 10:30 | Poco Nuvoloso | 20 | 14 | 68 | 1010 | 10 | S/SO 14.4 | |
| Ieri h: 10:00 | Poco Nuvoloso | 20 | 14 | 68 | 1010 | 10 | S 18 | |
| Ieri h: 09:30 | Sereno | 19 | 14 | 72 | 1010 | 10 | S 14.4 | |
| Ieri h: 09:00 | Sereno | 18 | 14 | 77 | 1010 | 10 | S 10.8 | |
| Ieri h: 08:30 | Sereno | 17 | 15 | 88 | 1010 | 10 | S 10.8 | |
| Ieri h: 08:00 | Sereno | 16 | 14 | 87 | 1009 | 10 | N 7.2 | |
| Ieri h: 07:30 | Sereno | 16 | 15 | 93 | 1009 | 10 | S/SO 10.8 | |
| Ieri h: 07:00 | Sereno | 15 | 14 | 93 | 1009 | 10 | N 7.2 | |
| Ieri h: 06:30 | Sereno | 15 | 15 | 100 | 1009 | 10 | S/SO 10.8 | |
| Ieri h: 06:00 | Pioggia | 15 | 15 | 100 | 1009 | 10 | SO 14.4 | |
| Ieri h: 05:30 | Pioggia | 15 | 15 | 100 | 1009 | 10 | S/SO 14.4 | |
| Ieri h: 05:00 | Pioggia | 16 | 15 | 93 | 1010 | 10 | S 18 | |
| Ieri h: 04:30 | Pioggia | 16 | 15 | 93 | 1009 | 10 | O/SO 10.8 | |
| Ieri h: 04:00 | Pioggia | 15 | 15 | 100 | 1009 | 10 | N 7.2 | |
| Ieri h: 03:30 | Pioggia | 16 | 15 | 93 | 1008 | 9 | N 3.6 | |
| Ieri h: 03:00 | Pioggia | 16 | 15 | 93 | 1008 | 9 | N 7.2 | |
| Ieri h: 02:30 | Pioggia | 16 | 15 | 93 | 1008 | 9 | O/SO 10.8 | |
| Ieri h: 02:16 | Pioggia | 16 | 15 | 93 | 1008 | 10 | O/SO 10.8 | |
| Ieri h: 02:00 | Temporale | 16 | 15 | 93 | 1007 | 10 | N 3.6 | |
| Ieri h: 01:30 | Temporale | 16 | 15 | 93 | 1008 | 10 | N 7.2 | |
| Ieri h: 01:00 | Temporale | 16 | 15 | 93 | 1008 | 10 | N 7.2 | |
| Ieri h: 00:52 | Temporale | 16 | 15 | 93 | 1008 | 9 | N 7.2 | |
| Ieri h: 00:42 | Pioggia | 16 | 15 | 93 | 1008 | 7 | O/NO 10.8 | |



